sensor_id;sensor_type;location;lat;lon;timestamp;pressure;altitude;pressure_sealevel;temperature;humidity
34961;BME280;30789;52.030;7.110;2023-05-11T00:00:13;100643.28;;;13.59;88.80
34961;BME280;30789;52.030;7.110;2023-05-11T00:02:41;100647.97;;;13.66;88.50
34961;BME280;30789;52.030;7.110;2023-05-11T00:05:08;100650.38;;;13.64;88.30
34961;BME280;30789;52.030;7.110;2023-05-11T00:07:35;100646.00;;;13.63;88.30
34961;BME280;30789;52.030;7.110;2023-05-11T00:10:01;100646.81;;;13.63;88.65
34961;BME280;30789;52.030;7.110;2023-05-11T00:12:28;100641.25;;;13.63;89.60
34961;BME280;30789;52.030;7.110;2023-05-11T00:14:54;100634.19;;;13.59;88.70
34961;BME280;30789;52.030;7.110;2023-05-11T00:17:21;100629.78;;;13.65;88.33
34961;BME280;30789;52.030;7.110;2023-05-11T00:19:48;100627.81;;;13.62;88.88
34961;BME280;30789;52.030;7.110;2023-05-11T00:22:15;100627.00;;;13.65;88.72
34961;BME280;30789;52.030;7.110;2023-05-11T00:24:42;100627.81;;;13.62;88.56
34961;BME280;30789;52.030;7.110;2023-05-11T00:27:08;100621.91;;;13.60;88.71
34961;BME280;30789;52.030;7.110;2023-05-11T00:29:34;100627.03;;;13.61;88.97
34961;BME280;30789;52.030;7.110;2023-05-11T00:32:01;100623.91;;;13.59;89.83
34961;BME280;30789;52.030;7.110;2023-05-11T00:34:27;100630.19;;;13.63;89.56
34961;BME280;30789;52.030;7.110;2023-05-11T00:36:55;100621.84;;;13.67;89.11
34961;BME280;30789;52.030;7.110;2023-05-11T00:39:22;100620.28;;;13.66;89.32
34961;BME280;30789;52.030;7.110;2023-05-11T00:41:48;100629.34;;;13.70;89.20
34961;BME280;30789;52.030;7.110;2023-05-11T00:44:14;100629.84;;;13.58;90.00
34961;BME280;30789;52.030;7.110;2023-05-11T00:46:41;100616.81;;;13.55;89.95
34961;BME280;30789;52.030;7.110;2023-05-11T00:49:08;100619.97;;;13.53;90.37
34961;BME280;30789;52.030;7.110;2023-05-11T00:51:35;100623.13;;;13.55;89.68
34961;BME280;30789;52.030;7.110;2023-05-11T00:54:03;100618.69;;;13.65;89.68
34961;BME280;30789;52.030;7.110;2023-05-11T00:56:29;100624.75;;;13.49;89.67
34961;BME280;30789;52.030;7.110;2023-05-11T00:58:56;100619.19;;;13.49;90.17
34961;BME280;30789;52.030;7.110;2023-05-11T01:01:22;100619.63;;;13.44;90.31
34961;BME280;30789;52.030;7.110;2023-05-11T01:03:49;100618.03;;;13.47;90.30
34961;BME280;30789;52.030;7.110;2023-05-11T01:06:22;100623.59;;;13.43;90.22
34961;BME280;30789;52.030;7.110;2023-05-11T01:08:56;100620.50;;;13.34;90.62
34961;BME280;30789;52.030;7.110;2023-05-11T01:11:33;100620.88;;;13.36;90.62
34961;BME280;30789;52.030;7.110;2023-05-11T01:14:05;100625.22;;;13.34;90.83
34961;BME280;30789;52.030;7.110;2023-05-11T01:16:39;100621.28;;;13.31;90.93
34961;BME280;30789;52.030;7.110;2023-05-11T01:19:18;100631.56;;;13.31;91.23
34961;BME280;30789;52.030;7.110;2023-05-11T01:21:49;100627.63;;;13.32;90.98
34961;BME280;30789;52.030;7.110;2023-05-11T01:24:22;100622.84;;;13.39;91.15
34961;BME280;30789;52.030;7.110;2023-05-11T01:27:06;100625.56;;;13.46;91.15
34961;BME280;30789;52.030;7.110;2023-05-11T01:29:43;100627.53;;;13.46;90.93
34961;BME280;30789;52.030;7.110;2023-05-11T01:32:17;100620.41;;;13.45;89.78
34961;BME280;30789;52.030;7.110;2023-05-11T01:34:45;100622.03;;;13.39;89.69
34961;BME280;30789;52.030;7.110;2023-05-11T01:37:15;100616.53;;;13.35;90.21
34961;BME280;30789;52.030;7.110;2023-05-11T01:39:50;100626.84;;;13.28;90.70
34961;BME280;30789;52.030;7.110;2023-05-11T01:42:19;100622.84;;;13.36;90.74
34961;BME280;30789;52.030;7.110;2023-05-11T01:44:50;100626.44;;;13.33;90.46
34961;BME280;30789;52.030;7.110;2023-05-11T01:47:20;100627.63;;;13.28;90.40
34961;BME280;30789;52.030;7.110;2023-05-11T01:49:49;100630.34;;;13.39;90.28
34961;BME280;30789;52.030;7.110;2023-05-11T01:52:17;100631.50;;;13.41;89.51
34961;BME280;30789;52.030;7.110;2023-05-11T01:54:45;100641.03;;;13.37;89.92
34961;BME280;30789;52.030;7.110;2023-05-11T01:57:14;100637.50;;;13.29;90.13
34961;BME280;30789;52.030;7.110;2023-05-11T01:59:42;100642.28;;;13.22;90.63
34961;BME280;30789;52.030;7.110;2023-05-11T02:02:10;100635.91;;;13.35;90.51
34961;BME280;30789;52.030;7.110;2023-05-11T02:04:39;100637.84;;;13.38;89.94
34961;BME280;30789;52.030;7.110;2023-05-11T02:07:07;100649.38;;;13.30;90.12
34961;BME280;30789;52.030;7.110;2023-05-11T02:09:36;100644.66;;;13.23;90.33
34961;BME280;30789;52.030;7.110;2023-05-11T02:12:04;100638.72;;;13.28;90.45
34961;BME280;30789;52.030;7.110;2023-05-11T02:14:33;100639.88;;;13.31;90.69
34961;BME280;30789;52.030;7.110;2023-05-11T02:17:02;100648.63;;;13.26;90.98
34961;BME280;30789;52.030;7.110;2023-05-11T02:19:31;100647.84;;;13.18;91.06
34961;BME280;30789;52.030;7.110;2023-05-11T02:22:01;100647.81;;;13.25;90.58
34961;BME280;30789;52.030;7.110;2023-05-11T02:24:29;100651.81;;;13.14;90.80
34961;BME280;30789;52.030;7.110;2023-05-11T02:26:56;100650.69;;;13.04;91.67
34961;BME280;30789;52.030;7.110;2023-05-11T02:29:23;100652.66;;;13.07;92.03
34961;BME280;30789;52.030;7.110;2023-05-11T02:31:55;100650.28;;;13.06;91.93
34961;BME280;30789;52.030;7.110;2023-05-11T02:34:25;100653.69;;;13.34;91.13
34961;BME280;30789;52.030;7.110;2023-05-11T02:36:54;100658.47;;;13.30;90.75
34961;BME280;30789;52.030;7.110;2023-05-11T02:39:29;100661.25;;;13.27;90.34
34961;BME280;30789;52.030;7.110;2023-05-11T02:41:59;100656.19;;;13.15;90.87
34961;BME280;30789;52.030;7.110;2023-05-11T02:44:30;100651.44;;;13.12;90.90
34961;BME280;30789;52.030;7.110;2023-05-11T02:46:59;100653.81;;;13.13;90.99
34961;BME280;30789;52.030;7.110;2023-05-11T02:49:29;100654.97;;;13.16;91.72
34961;BME280;30789;52.030;7.110;2023-05-11T02:51:58;100655.38;;;13.11;91.37
34961;BME280;30789;52.030;7.110;2023-05-11T02:54:27;100648.66;;;13.15;91.36
34961;BME280;30789;52.030;7.110;2023-05-11T02:56:55;100655.84;;;13.02;91.54
34961;BME280;30789;52.030;7.110;2023-05-11T02:59:23;100658.16;;;13.11;91.16
34961;BME280;30789;52.030;7.110;2023-05-11T03:01:50;100658.19;;;13.07;91.04
34961;BME280;30789;52.030;7.110;2023-05-11T03:04:17;100655.75;;;13.20;90.28
34961;BME280;30789;52.030;7.110;2023-05-11T03:06:43;100655.75;;;13.20;90.45
34961;BME280;30789;52.030;7.110;2023-05-11T03:09:10;100652.63;;;13.14;90.77
34961;BME280;30789;52.030;7.110;2023-05-11T03:11:38;100655.00;;;13.12;91.29
34961;BME280;30789;52.030;7.110;2023-05-11T03:14:06;100657.00;;;13.12;91.30
34961;BME280;30789;52.030;7.110;2023-05-11T03:16:33;100661.72;;;13.11;91.27
34961;BME280;30789;52.030;7.110;2023-05-11T03:19:00;100649.50;;;13.05;91.37
34961;BME280;30789;52.030;7.110;2023-05-11T03:21:27;100654.63;;;13.10;91.83
34961;BME280;30789;52.030;7.110;2023-05-11T03:23:55;100652.66;;;13.04;91.75
34961;BME280;30789;52.030;7.110;2023-05-11T03:26:22;100659.78;;;12.91;92.20
34961;BME280;30789;52.030;7.110;2023-05-11T03:28:51;100656.66;;;12.82;92.90
34961;BME280;30789;52.030;7.110;2023-05-11T03:31:18;100652.28;;;12.98;92.30
34961;BME280;30789;52.030;7.110;2023-05-11T03:33:45;100658.97;;;13.08;92.20
34961;BME280;30789;52.030;7.110;2023-05-11T03:36:11;100658.19;;;13.07;92.43
34961;BME280;30789;52.030;7.110;2023-05-11T03:38:38;100658.56;;;13.13;91.71
34961;BME280;30789;52.030;7.110;2023-05-11T03:41:05;100652.66;;;13.07;92.15
34961;BME280;30789;52.030;7.110;2023-05-11T03:43:33;100662.47;;;13.15;91.28
34961;BME280;30789;52.030;7.110;2023-05-11T03:46:03;100648.69;;;13.12;91.47
34961;BME280;30789;52.030;7.110;2023-05-11T03:48:30;100661.31;;;13.13;91.50
34961;BME280;30789;52.030;7.110;2023-05-11T03:50:57;100655.78;;;13.16;91.20
34961;BME280;30789;52.030;7.110;2023-05-11T03:53:24;100653.41;;;13.15;91.21
34961;BME280;30789;52.030;7.110;2023-05-11T03:55:51;100653.84;;;13.06;91.48
34961;BME280;30789;52.030;7.110;2023-05-11T03:58:19;100655.81;;;12.95;91.89
34961;BME280;30789;52.030;7.110;2023-05-11T04:00:45;100660.56;;;12.95;92.46
34961;BME280;30789;52.030;7.110;2023-05-11T04:03:13;100654.66;;;13.00;91.90
34961;BME280;30789;52.030;7.110;2023-05-11T04:05:40;100650.66;;;13.11;92.03
34961;BME280;30789;52.030;7.110;2023-05-11T04:08:08;100646.31;;;13.07;91.38
34961;BME280;30789;52.030;7.110;2023-05-11T04:10:34;100656.59;;;13.10;91.95
34961;BME280;30789;52.030;7.110;2023-05-11T04:13:02;100657.41;;;13.07;91.70
34961;BME280;30789;52.030;7.110;2023-05-11T04:15:29;100659.38;;;12.92;91.65
34961;BME280;30789;52.030;7.110;2023-05-11T04:17:55;100654.66;;;12.96;91.30
34961;BME280;30789;52.030;7.110;2023-05-11T04:20:23;100659.78;;;12.94;91.33
34961;BME280;30789;52.030;7.110;2023-05-11T04:22:49;100667.66;;;13.10;90.70
34961;BME280;30789;52.030;7.110;2023-05-11T04:25:16;100662.56;;;12.91;90.34
34961;BME280;30789;52.030;7.110;2023-05-11T04:27:42;100653.06;;;13.02;90.29
34961;BME280;30789;52.030;7.110;2023-05-11T04:30:09;100657.78;;;13.05;90.33
34961;BME280;30789;52.030;7.110;2023-05-11T04:32:36;100662.16;;;13.03;89.64
34961;BME280;30789;52.030;7.110;2023-05-11T04:35:03;100659.78;;;12.91;89.73
34961;BME280;30789;52.030;7.110;2023-05-11T04:37:31;100660.94;;;12.97;90.16
34961;BME280;30789;52.030;7.110;2023-05-11T04:39:57;100665.72;;;12.89;89.74
34961;BME280;30789;52.030;7.110;2023-05-11T04:42:24;100653.84;;;12.96;89.79
34961;BME280;30789;52.030;7.110;2023-05-11T04:44:52;100661.41;;;12.81;89.07
34961;BME280;30789;52.030;7.110;2023-05-11T04:47:18;100658.69;;;12.71;90.08
34961;BME280;30789;52.030;7.110;2023-05-11T04:49:44;100666.91;;;12.92;89.51
34961;BME280;30789;52.030;7.110;2023-05-11T04:52:11;100671.63;;;13.09;89.33
34961;BME280;30789;52.030;7.110;2023-05-11T04:54:39;100664.53;;;13.04;89.51
34961;BME280;30789;52.030;7.110;2023-05-11T04:57:05;100665.69;;;13.07;89.11
34961;BME280;30789;52.030;7.110;2023-05-11T04:59:32;100668.88;;;13.02;89.05
34961;BME280;30789;52.030;7.110;2023-05-11T05:01:58;100672.00;;;12.97;88.91
34961;BME280;30789;52.030;7.110;2023-05-11T05:04:25;100679.53;;;12.93;88.91
34961;BME280;30789;52.030;7.110;2023-05-11T05:06:52;100684.28;;;12.99;88.60
34961;BME280;30789;52.030;7.110;2023-05-11T05:09:18;100682.75;;;12.81;89.42
34961;BME280;30789;52.030;7.110;2023-05-11T05:11:47;100688.31;;;12.70;90.21
34961;BME280;30789;52.030;7.110;2023-05-11T05:14:13;100690.63;;;13.00;89.07
34961;BME280;30789;52.030;7.110;2023-05-11T05:16:40;100696.50;;;13.16;88.34
34961;BME280;30789;52.030;7.110;2023-05-11T05:19:06;100690.16;;;13.15;88.32
34961;BME280;30789;52.030;7.110;2023-05-11T05:21:33;100697.69;;;13.15;88.04
34961;BME280;30789;52.030;7.110;2023-05-11T05:24:00;100692.50;;;13.27;88.06
34961;BME280;30789;52.030;7.110;2023-05-11T05:26:27;100689.31;;;13.29;87.93
34961;BME280;30789;52.030;7.110;2023-05-11T05:28:55;100687.28;;;13.40;87.67
34961;BME280;30789;52.030;7.110;2023-05-11T05:31:21;100684.63;;;13.19;87.90
34961;BME280;30789;52.030;7.110;2023-05-11T05:33:49;100687.72;;;13.28;88.56
34961;BME280;30789;52.030;7.110;2023-05-11T05:36:15;100688.59;;;13.18;88.00
34961;BME280;30789;52.030;7.110;2023-05-11T05:38:42;100686.97;;;13.24;88.52
34961;BME280;30789;52.030;7.110;2023-05-11T05:41:08;100692.91;;;13.22;88.56
34961;BME280;30789;52.030;7.110;2023-05-11T05:43:35;100695.69;;;13.15;88.82
34961;BME280;30789;52.030;7.110;2023-05-11T05:46:03;100696.94;;;13.07;89.20
34961;BME280;30789;52.030;7.110;2023-05-11T05:48:30;100702.78;;;13.27;88.22
34961;BME280;30789;52.030;7.110;2023-05-11T05:50:56;100705.13;;;13.28;88.17
34961;BME280;30789;52.030;7.110;2023-05-11T05:53:24;100716.56;;;13.34;87.83
34961;BME280;30789;52.030;7.110;2023-05-11T05:55:50;100707.81;;;13.46;87.88
34961;BME280;30789;52.030;7.110;2023-05-11T05:58:17;100710.28;;;13.26;88.20
34961;BME280;30789;52.030;7.110;2023-05-11T06:00:43;100722.44;;;13.46;86.92
34961;BME280;30789;52.030;7.110;2023-05-11T06:03:11;100709.53;;;13.19;87.27
34961;BME280;30789;52.030;7.110;2023-05-11T06:05:38;100715.34;;;13.45;86.51
34961;BME280;30789;52.030;7.110;2023-05-11T06:08:04;100717.72;;;13.47;86.55
34961;BME280;30789;52.030;7.110;2023-05-11T06:10:31;100721.69;;;13.35;86.41
34961;BME280;30789;52.030;7.110;2023-05-11T06:12:57;100724.47;;;13.42;86.44
34961;BME280;30789;52.030;7.110;2023-05-11T06:15:24;100725.13;;;13.64;85.89
34961;BME280;30789;52.030;7.110;2023-05-11T06:17:51;100725.13;;;13.64;86.11
34961;BME280;30789;52.030;7.110;2023-05-11T06:20:18;100725.03;;;13.82;85.28
34961;BME280;30789;52.030;7.110;2023-05-11T06:22:45;100731.34;;;13.82;85.28
34961;BME280;30789;52.030;7.110;2023-05-11T06:25:12;100733.72;;;13.80;85.36
34961;BME280;30789;52.030;7.110;2023-05-11T06:27:38;100736.19;;;14.29;84.03
34961;BME280;30789;52.030;7.110;2023-05-11T06:30:06;100738.84;;;14.43;82.55
34961;BME280;30789;52.030;7.110;2023-05-11T06:32:32;100735.97;;;14.54;82.65
34961;BME280;30789;52.030;7.110;2023-05-11T06:34:59;100739.16;;;14.56;83.00
34961;BME280;30789;52.030;7.110;2023-05-11T06:37:29;100736.72;;;14.61;82.33
34961;BME280;30789;52.030;7.110;2023-05-11T06:39:55;100739.47;;;14.61;81.12
34961;BME280;30789;52.030;7.110;2023-05-11T06:42:22;100732.59;;;14.36;82.89
34961;BME280;30789;52.030;7.110;2023-05-11T06:44:48;100737.72;;;14.37;83.40
34961;BME280;30789;52.030;7.110;2023-05-11T06:47:15;100736.72;;;14.58;82.42
34961;BME280;30789;52.030;7.110;2023-05-11T06:49:41;100736.47;;;14.45;81.79
34961;BME280;30789;52.030;7.110;2023-05-11T06:52:08;100734.63;;;14.72;81.45
34961;BME280;30789;52.030;7.110;2023-05-11T06:54:36;100739.22;;;14.89;80.38
34961;BME280;30789;52.030;7.110;2023-05-11T06:57:02;100733.22;;;14.54;81.89
34961;BME280;30789;52.030;7.110;2023-05-11T06:59:29;100736.88;;;14.44;81.63
34961;BME280;30789;52.030;7.110;2023-05-11T07:01:56;100742.34;;;14.54;82.02
34961;BME280;30789;52.030;7.110;2023-05-11T07:04:23;100737.88;;;14.64;81.17
34961;BME280;30789;52.030;7.110;2023-05-11T07:06:49;100737.44;;;14.69;79.60
34961;BME280;30789;52.030;7.110;2023-05-11T07:09:16;100735.53;;;14.99;79.74
34961;BME280;30789;52.030;7.110;2023-05-11T07:11:44;100739.13;;;14.96;80.41
34961;BME280;30789;52.030;7.110;2023-05-11T07:14:10;100742.72;;;15.30;78.71
34961;BME280;30789;52.030;7.110;2023-05-11T07:16:36;100740.84;;;15.20;78.77
34961;BME280;30789;52.030;7.110;2023-05-11T07:19:03;100745.66;;;15.16;79.31
34961;BME280;30789;52.030;7.110;2023-05-11T07:21:29;100746.47;;;15.13;79.49
34961;BME280;30789;52.030;7.110;2023-05-11T07:23:57;100751.03;;;15.30;79.38
34961;BME280;30789;52.030;7.110;2023-05-11T07:26:23;100743.19;;;14.88;79.17
34961;BME280;30789;52.030;7.110;2023-05-11T07:28:51;100748.81;;;15.18;78.11
34961;BME280;30789;52.030;7.110;2023-05-11T07:31:18;100746.59;;;15.36;78.14
34961;BME280;30789;52.030;7.110;2023-05-11T07:33:44;100754.47;;;15.45;77.68
34961;BME280;30789;52.030;7.110;2023-05-11T07:36:11;100754.66;;;15.27;78.57
34961;BME280;30789;52.030;7.110;2023-05-11T07:38:37;100755.06;;;15.26;78.06
34961;BME280;30789;52.030;7.110;2023-05-11T07:41:04;100764.97;;;15.27;78.48
34961;BME280;30789;52.030;7.110;2023-05-11T07:43:31;100768.50;;;15.31;78.23
34961;BME280;30789;52.030;7.110;2023-05-11T07:45:59;100761.19;;;15.10;78.43
34961;BME280;30789;52.030;7.110;2023-05-11T07:48:26;100761.84;;;15.21;77.06
34961;BME280;30789;52.030;7.110;2023-05-11T07:50:52;100766.19;;;15.22;77.86
34961;BME280;30789;52.030;7.110;2023-05-11T07:53:19;100757.72;;;15.36;77.82
34961;BME280;30789;52.030;7.110;2023-05-11T07:55:45;100756.56;;;15.34;77.04
34961;BME280;30789;52.030;7.110;2023-05-11T07:58:12;100757.25;;;15.75;76.11
34961;BME280;30789;52.030;7.110;2023-05-11T08:00:38;100755.31;;;15.42;74.34
34961;BME280;30789;52.030;7.110;2023-05-11T08:03:06;100750.13;;;15.74;73.79
34961;BME280;30789;52.030;7.110;2023-05-11T08:05:33;100758.78;;;15.80;73.54
34961;BME280;30789;52.030;7.110;2023-05-11T08:08:02;100759.91;;;15.82;74.14
34961;BME280;30789;52.030;7.110;2023-05-11T08:10:28;100760.41;;;16.04;72.99
34961;BME280;30789;52.030;7.110;2023-05-11T08:12:55;100757.66;;;15.74;73.04
34961;BME280;30789;52.030;7.110;2023-05-11T08:15:22;100755.31;;;15.72;74.27
34961;BME280;30789;52.030;7.110;2023-05-11T08:17:48;100754.84;;;16.04;73.01
34961;BME280;30789;52.030;7.110;2023-05-11T08:20:16;100754.19;;;15.66;74.74
34961;BME280;30789;52.030;7.110;2023-05-11T08:22:43;100763.00;;;15.61;73.95
34961;BME280;30789;52.030;7.110;2023-05-11T08:25:10;100755.06;;;15.26;73.49
34961;BME280;30789;52.030;7.110;2023-05-11T08:27:36;100761.78;;;15.62;74.53
34961;BME280;30789;52.030;7.110;2023-05-11T08:30:03;100763.19;;;15.77;72.99
34961;BME280;30789;52.030;7.110;2023-05-11T08:32:30;100756.44;;;16.05;71.86
34961;BME280;30789;52.030;7.110;2023-05-11T08:34:56;100763.59;;;15.76;72.25
34961;BME280;30789;52.030;7.110;2023-05-11T08:37:24;100764.03;;;16.01;73.02
34961;BME280;30789;52.030;7.110;2023-05-11T08:39:51;100763.56;;;16.06;72.88
34961;BME280;30789;52.030;7.110;2023-05-11T08:42:17;100764.34;;;16.06;72.87
34961;BME280;30789;52.030;7.110;2023-05-11T08:44:45;100768.84;;;15.97;71.55
34961;BME280;30789;52.030;7.110;2023-05-11T08:47:13;100769.00;;;16.13;71.08
34961;BME280;30789;52.030;7.110;2023-05-11T08:49:40;100770.38;;;16.01;72.07
34961;BME280;30789;52.030;7.110;2023-05-11T08:52:07;100769.69;;;16.20;71.51
34961;BME280;30789;52.030;7.110;2023-05-11T08:54:36;100766.13;;;16.20;73.39
34961;BME280;30789;52.030;7.110;2023-05-11T08:57:02;100757.72;;;16.50;72.76
34961;BME280;30789;52.030;7.110;2023-05-11T08:59:31;100760.09;;;16.74;72.86
34961;BME280;30789;52.030;7.110;2023-05-11T09:01:59;100761.69;;;16.52;71.68
34961;BME280;30789;52.030;7.110;2023-05-11T09:04:26;100757.00;;;16.92;71.82
34961;BME280;30789;52.030;7.110;2023-05-11T09:06:53;100764.53;;;17.34;71.47
34961;BME280;30789;52.030;7.110;2023-05-11T09:09:21;100765.34;;;16.92;72.22
34961;BME280;30789;52.030;7.110;2023-05-11T09:11:50;100763.03;;;16.87;70.90
34961;BME280;30789;52.030;7.110;2023-05-11T09:14:16;100751.34;;;16.95;70.81
34961;BME280;30789;52.030;7.110;2023-05-11T09:16:44;100753.41;;;16.91;69.51
34961;BME280;30789;52.030;7.110;2023-05-11T09:19:13;100760.69;;;16.85;68.69
34961;BME280;30789;52.030;7.110;2023-05-11T09:21:40;100758.97;;;16.91;70.39
34961;BME280;30789;52.030;7.110;2023-05-11T09:24:10;100766.03;;;17.19;68.46
34961;BME280;30789;52.030;7.110;2023-05-11T09:26:37;100760.53;;;17.35;67.77
34961;BME280;30789;52.030;7.110;2023-05-11T09:29:05;100767.25;;;17.38;66.90
34961;BME280;30789;52.030;7.110;2023-05-11T09:31:38;100754.75;;;16.83;68.47
34961;BME280;30789;52.030;7.110;2023-05-11T09:34:10;100755.97;;;16.82;69.46
34961;BME280;30789;52.030;7.110;2023-05-11T09:36:37;100760.59;;;17.12;69.94
34961;BME280;30789;52.030;7.110;2023-05-11T09:39:03;100758.84;;;16.98;70.32
34961;BME280;30789;52.030;7.110;2023-05-11T09:41:30;100755.19;;;17.01;70.85
34961;BME280;30789;52.030;7.110;2023-05-11T09:44:04;100751.28;;;17.19;70.39
34961;BME280;30789;52.030;7.110;2023-05-11T09:46:33;100753.97;;;17.65;69.92
34961;BME280;30789;52.030;7.110;2023-05-11T09:48:59;100748.88;;;17.40;68.75
34961;BME280;30789;52.030;7.110;2023-05-11T09:51:30;100760.16;;;17.92;69.04
34961;BME280;30789;52.030;7.110;2023-05-11T09:53:57;100749.94;;;18.01;68.86
34961;BME280;30789;52.030;7.110;2023-05-11T09:56:43;100763.63;;;18.47;66.25
34961;BME280;30789;52.030;7.110;2023-05-11T09:59:14;100769.34;;;18.24;66.91
34961;BME280;30789;52.030;7.110;2023-05-11T10:01:41;100760.25;;;18.04;68.60
34961;BME280;30789;52.030;7.110;2023-05-11T10:04:07;100756.81;;;17.81;67.98
34961;BME280;30789;52.030;7.110;2023-05-11T10:06:45;100766.59;;;17.69;68.51
34961;BME280;30789;52.030;7.110;2023-05-11T10:09:12;100758.44;;;17.78;68.16
34961;BME280;30789;52.030;7.110;2023-05-11T10:11:43;100772.81;;;17.77;67.84
34961;BME280;30789;52.030;7.110;2023-05-11T10:14:13;100764.53;;;17.34;69.61
34961;BME280;30789;52.030;7.110;2023-05-11T10:16:41;100766.25;;;17.48;69.03
34961;BME280;30789;52.030;7.110;2023-05-11T10:19:08;100764.72;;;17.43;69.23
34961;BME280;30789;52.030;7.110;2023-05-11T10:21:34;100762.66;;;17.28;70.50
34961;BME280;30789;52.030;7.110;2023-05-11T10:24:02;100766.25;;;17.28;69.63
34961;BME280;30789;52.030;7.110;2023-05-11T10:26:30;100764.50;;;16.95;72.06
34961;BME280;30789;52.030;7.110;2023-05-11T10:28:58;100762.19;;;16.90;72.87
34961;BME280;30789;52.030;7.110;2023-05-11T10:31:27;100766.50;;;17.14;71.85
34961;BME280;30789;52.030;7.110;2023-05-11T10:33:54;100766.72;;;16.80;73.22
34961;BME280;30789;52.030;7.110;2023-05-11T10:36:22;100762.59;;;16.69;75.16
34961;BME280;30789;52.030;7.110;2023-05-11T10:38:49;100767.72;;;16.70;74.76
34961;BME280;30789;52.030;7.110;2023-05-11T10:41:26;100762.53;;;16.49;76.62
34961;BME280;30789;52.030;7.110;2023-05-11T10:44:10;100757.63;;;16.57;76.20
34961;BME280;30789;52.030;7.110;2023-05-11T10:46:58;100761.78;;;16.45;77.73
34961;BME280;30789;52.030;7.110;2023-05-11T10:49:45;100762.22;;;16.40;79.13
34961;BME280;30789;52.030;7.110;2023-05-11T10:52:28;100772.44;;;16.50;78.06
34961;BME280;30789;52.030;7.110;2023-05-11T10:55:09;100770.69;;;16.83;76.42
34961;BME280;30789;52.030;7.110;2023-05-11T10:57:48;100772.19;;;16.64;77.47
34961;BME280;30789;52.030;7.110;2023-05-11T11:03:27;100774.59;;;16.85;75.98
34961;BME280;30789;52.030;7.110;2023-05-11T11:05:54;100769.19;;;16.78;76.24
34961;BME280;30789;52.030;7.110;2023-05-11T11:08:21;100774.28;;;17.03;74.46
34961;BME280;30789;52.030;7.110;2023-05-11T11:10:48;100776.56;;;17.08;72.89
34961;BME280;30789;52.030;7.110;2023-05-11T11:13:17;100778.03;;;16.93;74.29
34961;BME280;30789;52.030;7.110;2023-05-11T11:16:09;100775.88;;;17.24;72.15
34961;BME280;30789;52.030;7.110;2023-05-11T11:18:37;100779.00;;;17.06;73.59
34961;BME280;30789;52.030;7.110;2023-05-11T11:21:04;100771.22;;;17.17;72.24
34961;BME280;30789;52.030;7.110;2023-05-11T11:23:40;100772.88;;;17.15;73.11
34961;BME280;30789;52.030;7.110;2023-05-11T11:26:08;100773.75;;;16.88;74.84
34961;BME280;30789;52.030;7.110;2023-05-11T11:29:07;100774.34;;;16.99;75.31
34961;BME280;30789;52.030;7.110;2023-05-11T11:31:34;100778.25;;;16.59;75.38
34961;BME280;30789;52.030;7.110;2023-05-11T11:34:32;100775.31;;;16.66;76.59
34961;BME280;30789;52.030;7.110;2023-05-11T11:37:04;100772.94;;;17.11;74.80
34961;BME280;30789;52.030;7.110;2023-05-11T11:39:59;100769.63;;;16.96;77.40
34961;BME280;30789;52.030;7.110;2023-05-11T11:42:33;100772.44;;;17.16;75.75
34961;BME280;30789;52.030;7.110;2023-05-11T11:45:27;100775.22;;;17.16;75.19
34961;BME280;30789;52.030;7.110;2023-05-11T11:48:11;100768.41;;;16.97;76.08
34961;BME280;30789;52.030;7.110;2023-05-11T11:50:44;100765.53;;;17.04;74.40
34961;BME280;30789;52.030;7.110;2023-05-11T11:53:30;100763.66;;;16.98;75.44
34961;BME280;30789;52.030;7.110;2023-05-11T11:56:02;100762.69;;;16.62;75.32
34961;BME280;30789;52.030;7.110;2023-05-11T11:58:57;100768.13;;;16.46;76.61
34961;BME280;30789;52.030;7.110;2023-05-11T12:01:25;100761.00;;;16.68;76.45
34961;BME280;30789;52.030;7.110;2023-05-11T12:06:55;100764.94;;;17.13;72.89
34961;BME280;30789;52.030;7.110;2023-05-11T12:09:22;100762.69;;;16.85;74.56
34961;BME280;30789;52.030;7.110;2023-05-11T12:11:51;100762.59;;;16.42;78.43
34961;BME280;30789;52.030;7.110;2023-05-11T12:14:18;100754.34;;;16.62;77.68
34961;BME280;30789;52.030;7.110;2023-05-11T12:16:59;100754.25;;;16.42;77.69
34961;BME280;30789;52.030;7.110;2023-05-11T12:19:25;100757.91;;;16.62;77.84
34961;BME280;30789;52.030;7.110;2023-05-11T12:21:52;100767.63;;;16.74;76.24
34961;BME280;30789;52.030;7.110;2023-05-11T12:24:19;100761.59;;;16.56;77.82
34961;BME280;30789;52.030;7.110;2023-05-11T12:26:46;100763.59;;;16.78;75.99
34961;BME280;30789;52.030;7.110;2023-05-11T12:29:14;100768.50;;;16.71;75.79
34961;BME280;30789;52.030;7.110;2023-05-11T12:31:43;100767.22;;;16.75;75.60
34961;BME280;30789;52.030;7.110;2023-05-11T12:34:12;100757.88;;;16.39;76.18
34961;BME280;30789;52.030;7.110;2023-05-11T12:36:39;100759.44;;;16.40;78.43
34961;BME280;30789;52.030;7.110;2023-05-11T12:39:06;100754.78;;;16.34;77.07
34961;BME280;30789;52.030;7.110;2023-05-11T12:41:32;100751.91;;;16.14;78.57
34961;BME280;30789;52.030;7.110;2023-05-11T12:43:59;100753.38;;;16.22;79.11
34961;BME280;30789;52.030;7.110;2023-05-11T12:46:27;100756.34;;;16.84;75.05
34961;BME280;30789;52.030;7.110;2023-05-11T12:48:53;100751.91;;;16.87;75.19
34961;BME280;30789;52.030;7.110;2023-05-11T12:51:43;100749.50;;;16.89;74.12
34961;BME280;30789;52.030;7.110;2023-05-11T12:54:10;100756.59;;;17.13;72.83
34961;BME280;30789;52.030;7.110;2023-05-11T12:56:46;100753.31;;;17.18;73.40
34961;BME280;30789;52.030;7.110;2023-05-11T12:59:32;100753.75;;;17.17;73.09
34961;BME280;30789;52.030;7.110;2023-05-11T13:02:15;100749.91;;;16.87;73.96
34961;BME280;30789;52.030;7.110;2023-05-11T13:04:43;100750.56;;;16.95;75.40